createdAt,value
2019-06-26T00:00:57.522Z,16.30
2019-06-26T00:03:25.088Z,16.87
2019-06-26T00:05:52.636Z,15.00
2019-06-26T00:08:20.186Z,15.03
2019-06-26T00:10:47.766Z,14.77
2019-06-26T00:13:25.606Z,15.40
2019-06-26T00:15:44.878Z,15.37
2019-06-26T00:18:12.418Z,16.90
2019-06-26T00:20:39.977Z,18.00
2019-06-26T00:23:07.534Z,18.17
2019-06-26T00:25:35.060Z,20.57
2019-06-26T00:28:02.655Z,20.57
2019-06-26T00:30:30.363Z,18.90
2019-06-26T00:32:57.916Z,17.67
2019-06-26T00:35:25.455Z,19.00
2019-06-26T00:37:53.033Z,20.53
2019-06-26T00:40:20.566Z,18.60
2019-06-26T00:42:48.108Z,15.90
2019-06-26T00:45:16.030Z,14.33
2019-06-26T00:47:43.581Z,14.40
2019-06-26T00:50:11.939Z,12.90
2019-06-26T00:52:39.535Z,13.73
2019-06-26T00:55:07.082Z,14.53
2019-06-26T00:57:34.755Z,14.03
2019-06-26T01:00:08.725Z,17.10
2019-06-26T01:02:36.710Z,17.07
2019-06-26T01:05:09.126Z,16.43
2019-06-26T01:07:36.732Z,17.77
2019-06-26T01:10:05.026Z,17.20
2019-06-26T01:12:32.567Z,20.90
2019-06-26T01:15:00.141Z,23.10
2019-06-26T01:17:27.683Z,21.50
2019-06-26T01:19:55.227Z,18.83
2019-06-26T01:22:22.996Z,17.23
2019-06-26T01:24:50.539Z,17.40
2019-06-26T01:27:18.130Z,13.60
2019-06-26T01:29:46.470Z,15.60
2019-06-26T01:32:14.001Z,16.43
2019-06-26T01:34:41.540Z,15.50
2019-06-26T01:37:09.321Z,17.90
2019-06-26T01:39:36.850Z,16.10
2019-06-26T01:42:04.432Z,16.10
2019-06-26T01:44:32.134Z,15.23
2019-06-26T01:46:59.665Z,15.10
2019-06-26T01:49:27.193Z,16.57
2019-06-26T01:51:54.748Z,17.43
2019-06-26T01:54:22.319Z,15.83
2019-06-26T01:56:49.861Z,14.80
2019-06-26T01:59:17.423Z,17.53
2019-06-26T02:01:44.971Z,18.77
2019-06-26T02:04:15.489Z,19.10
2019-06-26T02:06:41.864Z,18.47
2019-06-26T02:09:09.412Z,17.07
2019-06-26T02:11:36.968Z,20.33
2019-06-26T02:14:04.555Z,19.00
2019-06-26T02:16:32.111Z,22.50
2019-06-26T02:19:20.178Z,16.93
2019-06-26T02:21:47.932Z,16.77
2019-06-26T02:24:15.483Z,15.20
2019-06-26T02:26:43.031Z,14.20
2019-06-26T02:29:10.597Z,12.90
2019-06-26T02:31:38.178Z,14.33
2019-06-26T02:34:05.762Z,12.53
2019-06-26T02:36:33.302Z,13.17
2019-06-26T02:39:00.879Z,15.87
2019-06-26T02:41:28.467Z,15.93
2019-06-26T02:43:56.013Z,13.60
2019-06-26T02:46:23.581Z,11.50
2019-06-26T02:48:51.128Z,13.07
2019-06-26T02:51:18.710Z,9.53
2019-06-26T02:53:46.282Z,10.07
2019-06-26T02:56:13.834Z,10.83
2019-06-26T02:58:41.350Z,11.57
2019-06-26T03:01:09.114Z,11.23
2019-06-26T03:03:36.623Z,9.80
2019-06-26T03:06:04.185Z,10.10
2019-06-26T03:08:31.755Z,10.03
2019-06-26T03:10:59.304Z,9.43
2019-06-26T03:13:27.026Z,9.90
2019-06-26T03:15:54.600Z,9.73
2019-06-26T03:18:22.255Z,9.60
2019-06-26T03:20:53.773Z,10.23
2019-06-26T03:23:21.330Z,10.83
2019-06-26T03:25:48.864Z,10.83
2019-06-26T03:28:16.871Z,10.67
2019-06-26T03:30:44.406Z,10.73
2019-06-26T03:33:11.942Z,10.97
2019-06-26T03:35:40.856Z,11.37
2019-06-26T03:38:08.664Z,12.80
2019-06-26T03:40:36.206Z,12.83
2019-06-26T03:43:04.014Z,10.93
2019-06-26T03:45:31.554Z,14.60
2019-06-26T03:47:59.288Z,13.27
2019-06-26T03:50:26.869Z,15.00
2019-06-26T03:52:54.725Z,16.20
2019-06-26T03:55:22.297Z,14.13
2019-06-26T03:57:49.852Z,18.20
2019-06-26T04:00:28.109Z,19.20
2019-06-26T04:02:55.649Z,19.50
2019-06-26T04:05:23.361Z,20.60
2019-06-26T04:07:51.400Z,19.20
2019-06-26T04:10:18.921Z,15.83
2019-06-26T04:12:46.419Z,16.30
2019-06-26T04:15:17.278Z,16.00
2019-06-26T04:17:45.095Z,14.40
2019-06-26T04:20:12.631Z,15.80
2019-06-26T04:22:40.187Z,17.57
2019-06-26T04:25:07.949Z,15.13
2019-06-26T04:27:35.473Z,14.57
2019-06-26T04:30:03.171Z,14.13
2019-06-26T04:32:30.904Z,12.73
2019-06-26T04:34:58.429Z,11.80
2019-06-26T04:37:25.971Z,13.87
2019-06-26T04:39:54.759Z,15.63
2019-06-26T04:42:22.280Z,12.97
2019-06-26T04:44:49.816Z,14.57
2019-06-26T04:47:17.545Z,13.73
2019-06-26T04:49:45.521Z,13.97
2019-06-26T04:52:13.077Z,13.67
2019-06-26T04:54:40.897Z,13.97
2019-06-26T04:57:08.461Z,14.93
2019-06-26T04:59:35.987Z,15.07
2019-06-26T05:02:03.729Z,15.70
2019-06-26T05:04:31.364Z,18.30
2019-06-26T05:06:58.909Z,15.47
2019-06-26T05:09:26.514Z,15.53
2019-06-26T05:11:54.067Z,15.63
2019-06-26T05:14:21.618Z,15.33
2019-06-26T05:16:49.152Z,15.43
2019-06-26T05:19:16.714Z,18.23
2019-06-26T05:21:44.257Z,14.97
2019-06-26T05:24:11.756Z,14.67
2019-06-26T05:26:39.390Z,14.03
2019-06-26T05:29:08.163Z,14.63
2019-06-26T05:31:35.695Z,15.20
2019-06-26T05:34:03.254Z,13.23
2019-06-26T05:36:30.795Z,13.13
2019-06-26T05:38:58.370Z,12.70
2019-06-26T05:41:25.925Z,32.40
2019-06-26T05:43:53.459Z,15.03
2019-06-26T05:46:30.678Z,13.23
2019-06-26T05:48:50.555Z,12.83
2019-06-26T05:51:18.095Z,12.10
2019-06-26T05:53:46.231Z,13.33
2019-06-26T05:56:13.755Z,13.00
2019-06-26T05:58:41.295Z,19.20
2019-06-26T06:01:08.876Z,13.20
2019-06-26T06:03:36.405Z,12.33
2019-06-26T06:06:04.006Z,13.00
2019-06-26T06:08:31.742Z,12.33
2019-06-26T06:10:59.315Z,12.63
2019-06-26T06:13:26.872Z,12.63
2019-06-26T06:15:54.634Z,13.20
2019-06-26T06:18:22.148Z,12.17
2019-06-26T06:20:49.679Z,15.03
2019-06-26T06:23:17.236Z,12.33
2019-06-26T06:25:44.792Z,10.90
2019-06-26T06:28:12.361Z,17.02
2019-06-26T06:30:39.922Z,9.85
2019-06-26T06:33:08.204Z,9.60
2019-06-26T06:35:35.771Z,10.35
2019-06-26T06:38:03.414Z,9.10
2019-06-26T06:40:30.948Z,8.53
2019-06-26T06:42:58.509Z,8.83
2019-06-26T06:45:26.270Z,8.78
2019-06-26T06:47:53.833Z,9.23
2019-06-26T06:50:21.371Z,8.73
2019-06-26T06:52:49.120Z,8.80
2019-06-26T06:55:16.701Z,8.33
2019-06-26T06:57:44.273Z,8.30
2019-06-26T07:00:12.552Z,9.05
2019-06-26T07:02:40.134Z,10.25
2019-06-26T07:05:07.953Z,8.88
2019-06-26T07:07:35.497Z,9.28
2019-06-26T07:10:03.198Z,9.38
2019-06-26T07:12:30.730Z,8.55
2019-06-26T07:14:58.348Z,8.35
2019-06-26T07:17:25.865Z,9.23
2019-06-26T07:19:53.397Z,8.60
2019-06-26T07:22:22.483Z,9.90
2019-06-26T07:24:50.027Z,10.10
2019-06-26T07:27:17.574Z,10.20
2019-06-26T07:29:45.166Z,8.38
2019-06-26T07:32:12.698Z,8.40
2019-06-26T07:34:40.263Z,9.83
2019-06-26T07:37:07.827Z,10.98
2019-06-26T07:39:35.375Z,10.43
2019-06-26T07:42:03.062Z,9.80
2019-06-26T07:44:30.626Z,9.80
2019-06-26T07:46:58.187Z,9.53
2019-06-26T07:49:25.708Z,9.78
2019-06-26T07:51:53.291Z,11.60
2019-06-26T07:54:20.827Z,13.60
2019-06-26T07:56:48.399Z,11.43
2019-06-26T07:59:15.971Z,12.23
2019-06-26T08:01:43.530Z,11.28
2019-06-26T08:04:11.058Z,11.25
2019-06-26T08:06:38.815Z,10.90
2019-06-26T08:09:06.499Z,10.03
2019-06-26T08:11:34.091Z,13.08
2019-06-26T08:14:01.642Z,11.08
2019-06-26T08:16:29.319Z,10.58
2019-06-26T08:18:56.864Z,11.80
2019-06-26T08:21:24.423Z,10.03
2019-06-26T08:23:51.988Z,10.18
2019-06-26T08:26:19.530Z,9.70
2019-06-26T08:28:47.039Z,10.60
2019-06-26T08:31:14.610Z,10.18
2019-06-26T08:33:42.162Z,11.95
2019-06-26T08:36:09.733Z,10.30
2019-06-26T08:38:37.313Z,10.60
2019-06-26T08:41:04.917Z,9.15
2019-06-26T08:43:32.476Z,9.75
2019-06-26T08:46:00.028Z,9.95
2019-06-26T08:48:38.864Z,9.48
2019-06-26T08:50:57.072Z,8.45
2019-06-26T08:53:24.652Z,10.58
2019-06-26T08:55:52.198Z,7.75
2019-06-26T08:58:19.929Z,8.23
2019-06-26T09:00:47.653Z,7.83
2019-06-26T09:03:15.201Z,7.65
2019-06-26T09:05:48.011Z,7.58
2019-06-26T09:08:12.330Z,8.50
2019-06-26T09:10:39.966Z,7.33
2019-06-26T09:13:07.503Z,7.65
2019-06-26T09:15:35.065Z,7.60
2019-06-26T09:18:02.608Z,5.67
2019-06-26T09:20:36.879Z,5.67
2019-06-26T09:23:04.523Z,6.80
2019-06-26T09:25:32.361Z,5.95
2019-06-26T09:27:59.943Z,5.10
2019-06-26T09:30:27.574Z,3.80
2019-06-26T09:32:55.135Z,5.10
2019-06-26T09:35:22.860Z,3.25
2019-06-26T09:37:50.418Z,3.60
2019-06-26T09:40:18.095Z,3.77
2019-06-26T09:42:45.719Z,3.80
2019-06-26T09:45:13.754Z,5.70
2019-06-26T09:47:41.323Z,6.40
2019-06-26T09:50:09.353Z,9.03
2019-06-26T09:52:36.933Z,4.70
2019-06-26T09:55:04.620Z,4.25
2019-06-26T09:57:32.178Z,4.53
2019-06-26T10:00:00.215Z,4.65
2019-06-26T10:02:27.826Z,4.90
2019-06-26T10:04:55.726Z,5.22
2019-06-26T10:07:23.483Z,5.37
2019-06-26T10:09:51.051Z,5.95
2019-06-26T10:12:18.767Z,5.87
2019-06-26T10:14:48.027Z,5.90
2019-06-26T10:17:15.732Z,6.00
2019-06-26T10:19:43.421Z,12.03
2019-06-26T10:22:10.992Z,6.25
2019-06-26T10:24:38.515Z,6.42
2019-06-26T10:27:06.089Z,6.92
2019-06-26T10:29:33.648Z,4.85
2019-06-26T10:32:01.175Z,5.00
2019-06-26T10:34:28.935Z,5.72
2019-06-26T10:36:56.479Z,6.40
2019-06-26T10:39:24.024Z,6.30
2019-06-26T10:41:54.905Z,5.85
2019-06-26T10:44:20.940Z,5.97
2019-06-26T10:46:48.488Z,7.15
2019-06-26T10:49:26.475Z,7.78
2019-06-26T10:51:45.408Z,5.75
2019-06-26T10:54:13.177Z,6.40
2019-06-26T10:56:40.739Z,6.78
2019-06-26T10:59:08.294Z,5.62
2019-06-26T11:01:35.908Z,5.67
2019-06-26T11:04:03.637Z,6.97
2019-06-26T11:06:31.219Z,6.37
2019-06-26T11:08:58.787Z,6.10
2019-06-26T11:11:26.353Z,6.62
2019-06-26T11:13:53.926Z,8.38
2019-06-26T11:16:21.632Z,6.47
2019-06-26T11:18:49.196Z,6.17
2019-06-26T11:21:16.732Z,8.53
2019-06-26T11:23:44.315Z,9.90
2019-06-26T11:26:11.868Z,7.37
2019-06-26T11:28:39.412Z,7.25
2019-06-26T11:31:06.977Z,7.10
2019-06-26T11:33:34.531Z,6.72
2019-06-26T11:36:02.084Z,6.70
2019-06-26T11:38:29.691Z,7.17
2019-06-26T11:40:57.459Z,6.67
2019-06-26T11:43:24.991Z,9.70
2019-06-26T11:45:52.553Z,6.87
2019-06-26T11:48:20.336Z,6.83
2019-06-26T11:50:47.874Z,6.92
2019-06-26T11:53:15.416Z,7.75
2019-06-26T11:55:43.669Z,6.62
2019-06-26T11:58:11.541Z,6.65
2019-06-26T12:00:41.601Z,7.30
2019-06-26T12:03:08.443Z,7.25
2019-06-26T12:05:36.173Z,7.65
2019-06-26T12:08:03.929Z,7.25
2019-06-26T12:10:31.489Z,10.05
2019-06-26T12:12:59.327Z,8.88
2019-06-26T12:15:26.900Z,7.17
2019-06-26T12:17:54.419Z,9.43
2019-06-26T12:20:22.322Z,21.37
2019-06-26T12:22:50.085Z,9.23
2019-06-26T12:25:17.719Z,6.67
2019-06-26T12:27:45.370Z,7.20
2019-06-26T12:30:13.207Z,6.72
2019-06-26T12:32:42.569Z,6.62
2019-06-26T12:35:10.126Z,11.15
2019-06-26T12:37:38.311Z,11.18
2019-06-26T12:40:06.666Z,6.08
2019-06-26T12:42:34.458Z,9.43
2019-06-26T12:45:02.011Z,7.08
2019-06-26T12:47:29.541Z,9.40
2019-06-26T12:49:57.125Z,10.98
2019-06-26T12:52:24.657Z,9.75
2019-06-26T12:54:54.663Z,7.90
2019-06-26T12:57:22.205Z,7.30
2019-06-26T12:59:57.166Z,10.88
2019-06-26T13:02:19.407Z,8.63
2019-06-26T13:04:46.967Z,6.28
2019-06-26T13:07:14.523Z,10.25
2019-06-26T13:09:42.102Z,10.13
2019-06-26T13:12:09.657Z,18.02
2019-06-26T13:14:37.186Z,10.48
2019-06-26T13:17:04.978Z,9.08
2019-06-26T13:19:32.507Z,7.10
2019-06-26T13:22:00.100Z,9.13
2019-06-26T13:24:27.867Z,8.48
2019-06-26T13:26:55.387Z,7.45
2019-06-26T13:29:22.945Z,7.95
2019-06-26T13:31:51.092Z,10.48
2019-06-26T13:34:18.663Z,7.42
2019-06-26T13:36:46.207Z,11.57
2019-06-26T13:39:13.796Z,6.78
2019-06-26T13:41:41.389Z,8.78
2019-06-26T13:44:08.920Z,5.85
2019-06-26T13:46:36.501Z,9.15
2019-06-26T13:49:04.067Z,11.35
2019-06-26T13:51:31.675Z,10.35
2019-06-26T13:53:59.202Z,10.28
2019-06-26T13:56:26.925Z,15.08
2019-06-26T13:58:54.479Z,12.80
2019-06-26T14:01:23.214Z,9.55
2019-06-26T14:03:50.985Z,5.75
2019-06-26T14:06:18.529Z,9.40
2019-06-26T14:08:46.076Z,10.10
2019-06-26T14:11:13.851Z,9.48
2019-06-26T14:13:42.004Z,10.98
2019-06-26T14:16:09.718Z,8.70
2019-06-26T14:18:37.233Z,10.55
2019-06-26T14:21:04.977Z,8.48
2019-06-26T14:23:32.517Z,8.13
2019-06-26T14:26:00.145Z,9.73
2019-06-26T14:28:27.708Z,8.33
2019-06-26T14:30:55.291Z,8.20
2019-06-26T14:33:22.873Z,8.55
2019-06-26T14:35:50.601Z,7.90
2019-06-26T14:38:18.241Z,10.45
2019-06-26T14:40:45.802Z,10.53
2019-06-26T14:43:13.399Z,8.33
2019-06-26T14:45:41.299Z,9.58
2019-06-26T14:48:08.814Z,8.75
2019-06-26T14:50:36.649Z,6.83
2019-06-26T14:53:04.212Z,6.83
2019-06-26T14:55:31.749Z,7.92
2019-06-26T14:57:59.491Z,12.40
2019-06-26T15:00:27.032Z,7.90
2019-06-26T15:02:54.579Z,7.42
2019-06-26T15:05:22.319Z,13.35
2019-06-26T15:07:50.288Z,10.60
2019-06-26T15:10:18.099Z,8.83
2019-06-26T15:12:45.670Z,9.30
2019-06-26T15:15:13.867Z,9.30
2019-06-26T15:17:41.423Z,11.78
2019-06-26T15:20:09.190Z,10.43
2019-06-26T15:22:36.735Z,11.05
2019-06-26T15:25:05.391Z,9.18
2019-06-26T15:27:32.984Z,7.40
2019-06-26T15:30:00.535Z,9.40
2019-06-26T15:32:28.104Z,8.65
2019-06-26T15:34:55.645Z,9.30
2019-06-26T15:37:23.235Z,11.68
2019-06-26T15:39:51.022Z,11.97
2019-06-26T15:42:18.569Z,10.03
2019-06-26T15:44:46.111Z,9.15
2019-06-26T15:47:13.698Z,11.97
2019-06-26T15:49:41.250Z,10.25
2019-06-26T15:52:15.073Z,7.47
2019-06-26T15:54:38.182Z,13.58
2019-06-26T15:57:05.753Z,6.15
2019-06-26T15:59:33.530Z,12.80
2019-06-26T16:02:01.077Z,10.85
2019-06-26T16:04:28.672Z,13.00
2019-06-26T16:06:56.407Z,8.88
2019-06-26T16:09:23.984Z,6.83
2019-06-26T16:11:51.528Z,9.58
2019-06-26T16:14:19.129Z,10.28
2019-06-26T16:16:48.491Z,7.85
2019-06-26T16:19:17.343Z,10.40
2019-06-26T16:21:44.916Z,8.48
2019-06-26T16:24:12.661Z,7.92
2019-06-26T16:26:40.200Z,9.95
2019-06-26T16:29:07.725Z,8.30
2019-06-26T16:31:35.324Z,9.98
2019-06-26T16:34:02.874Z,10.30
2019-06-26T16:36:30.430Z,12.25
2019-06-26T16:38:58.006Z,11.33
2019-06-26T16:41:26.807Z,12.40
2019-06-26T16:43:54.411Z,10.25
2019-06-26T16:46:21.953Z,12.73
2019-06-26T16:48:49.866Z,6.40
2019-06-26T16:51:17.447Z,12.37
2019-06-26T16:53:45.052Z,15.25
2019-06-26T16:56:12.645Z,11.22
2019-06-26T16:58:40.187Z,9.33
2019-06-26T17:01:07.805Z,16.62
2019-06-26T17:07:40.612Z,13.00
2019-06-26T17:10:09.841Z,10.72
2019-06-26T17:12:37.410Z,13.48
2019-06-26T17:15:05.231Z,11.03
2019-06-26T17:17:32.792Z,11.25
2019-06-26T17:20:00.348Z,12.88
2019-06-26T17:22:28.052Z,13.80
2019-06-26T17:24:55.621Z,15.40
2019-06-26T17:27:23.171Z,14.87
2019-06-26T17:29:50.756Z,14.80
2019-06-26T17:32:18.300Z,13.90
2019-06-26T17:34:45.889Z,15.72
2019-06-26T17:37:13.465Z,13.20
2019-06-26T17:39:41.033Z,12.98
2019-06-26T17:42:08.580Z,12.73
2019-06-26T17:44:36.149Z,16.93
2019-06-26T17:47:05.497Z,12.60
2019-06-26T17:49:33.123Z,10.63
2019-06-26T17:52:00.702Z,8.80
2019-06-26T17:54:28.262Z,18.30
2019-06-26T17:56:55.993Z,12.60
2019-06-26T17:59:23.534Z,12.93
2019-06-26T18:01:51.089Z,11.38
2019-06-26T18:04:18.825Z,8.63
2019-06-26T18:06:46.400Z,12.63
2019-06-26T18:09:13.949Z,13.05
2019-06-26T18:11:41.523Z,13.15
2019-06-26T18:14:09.265Z,11.70
2019-06-26T18:16:36.830Z,9.43
2019-06-26T18:19:04.372Z,18.73
2019-06-26T18:21:32.126Z,12.98
2019-06-26T18:23:59.667Z,11.55
2019-06-26T18:26:27.213Z,10.03
2019-06-26T18:28:54.991Z,16.20
2019-06-26T18:31:22.525Z,15.78
2019-06-26T18:33:50.084Z,12.47
2019-06-26T18:36:17.689Z,14.73
2019-06-26T18:38:45.242Z,14.87
2019-06-26T18:41:12.819Z,19.62
2019-06-26T18:43:40.491Z,16.42
2019-06-26T18:46:08.046Z,20.80
2019-06-26T18:48:35.602Z,14.10
2019-06-26T18:51:03.175Z,15.98
2019-06-26T18:53:30.728Z,15.90
2019-06-26T18:55:58.277Z,10.60
2019-06-26T18:58:26.021Z,11.40
2019-06-26T19:00:53.620Z,10.40
2019-06-26T19:03:21.191Z,12.75
2019-06-26T19:05:48.789Z,17.25
2019-06-26T19:08:16.329Z,10.08
2019-06-26T19:10:43.885Z,16.35
2019-06-26T19:13:11.634Z,14.60
2019-06-26T19:15:39.208Z,12.78
2019-06-26T19:18:06.795Z,12.28
2019-06-26T19:20:34.393Z,17.32
2019-06-26T19:23:01.979Z,11.33
2019-06-26T19:25:29.553Z,11.15
2019-06-26T19:27:57.172Z,28.00
2019-06-26T19:30:24.753Z,20.15
2019-06-26T19:32:52.335Z,10.23
2019-06-26T19:35:20.458Z,13.58
2019-06-26T19:37:48.356Z,14.95
2019-06-26T19:40:15.920Z,12.07
2019-06-26T19:42:43.718Z,11.63
2019-06-26T19:45:13.380Z,10.95
2019-06-26T19:47:40.953Z,13.95
2019-06-26T19:50:09.025Z,8.55
2019-06-26T19:52:36.718Z,11.80
2019-06-26T19:55:04.806Z,15.55
2019-06-26T19:57:32.688Z,11.88
2019-06-26T20:00:00.283Z,13.88
2019-06-26T20:02:27.851Z,11.57
2019-06-26T20:04:55.654Z,14.87
2019-06-26T20:07:23.236Z,19.42
2019-06-26T20:09:50.815Z,17.65
2019-06-26T20:12:18.394Z,13.95
2019-06-26T20:14:45.958Z,31.05
2019-06-26T20:17:13.537Z,16.27
2019-06-26T20:19:41.164Z,18.95
2019-06-26T20:22:08.695Z,16.05
2019-06-26T20:24:43.851Z,14.20
2019-06-26T20:27:05.665Z,16.97
2019-06-26T20:29:33.227Z,11.30
2019-06-26T20:32:00.780Z,16.48
2019-06-26T20:34:28.585Z,11.68
2019-06-26T20:36:56.179Z,16.12
2019-06-26T20:39:23.914Z,11.15
2019-06-26T20:41:51.663Z,17.02
2019-06-26T20:44:19.208Z,14.78
2019-06-26T20:46:46.758Z,13.18
2019-06-26T20:49:14.332Z,15.93
2019-06-26T20:51:41.919Z,19.23
2019-06-26T20:54:09.481Z,12.03
2019-06-26T20:56:37.254Z,14.45
2019-06-26T20:59:04.809Z,15.70
2019-06-26T21:01:32.349Z,12.98
2019-06-26T21:03:59.923Z,17.92
2019-06-26T21:06:27.459Z,13.32
2019-06-26T21:08:55.191Z,16.97
2019-06-26T21:11:22.771Z,19.65
2019-06-26T21:13:50.304Z,15.38
2019-06-26T21:16:18.047Z,18.20
2019-06-26T21:18:45.613Z,16.47
2019-06-26T21:21:13.147Z,13.13
2019-06-26T21:23:40.890Z,18.45
2019-06-26T21:26:08.439Z,12.35
2019-06-26T21:28:36.006Z,14.70
2019-06-26T21:31:03.590Z,13.37
2019-06-26T21:33:31.132Z,15.68
2019-06-26T21:35:58.899Z,13.70
2019-06-26T21:38:26.457Z,12.68
2019-06-26T21:40:54.064Z,22.57
2019-06-26T21:43:21.820Z,14.87
2019-06-26T21:45:49.360Z,17.60
2019-06-26T21:48:16.911Z,12.53
2019-06-26T21:50:44.479Z,16.10
2019-06-26T21:53:12.038Z,17.37
2019-06-26T21:55:39.582Z,16.83
2019-06-26T21:58:07.319Z,15.10
2019-06-26T22:00:35.985Z,19.10
2019-06-26T22:03:03.528Z,16.17
2019-06-26T22:05:31.139Z,14.90
2019-06-26T22:07:58.689Z,18.33
2019-06-26T22:10:26.253Z,20.57
2019-06-26T22:12:53.976Z,14.77
2019-06-26T22:15:21.497Z,14.73
2019-06-26T22:17:49.061Z,15.93
2019-06-26T22:20:17.582Z,18.30
2019-06-26T22:22:45.107Z,15.23
2019-06-26T22:25:13.262Z,15.23
2019-06-26T22:27:40.977Z,14.00
2019-06-26T22:30:08.823Z,24.77
2019-06-26T22:32:36.388Z,14.50
2019-06-26T22:35:04.176Z,12.90
2019-06-26T22:37:31.712Z,14.87
2019-06-26T22:39:59.270Z,12.17
2019-06-26T22:42:27.346Z,14.83
2019-06-26T22:44:54.878Z,15.50
2019-06-26T22:47:22.430Z,14.43
2019-06-26T22:49:50.019Z,15.27
2019-06-26T22:52:17.562Z,18.23
2019-06-26T22:54:45.311Z,20.83
2019-06-26T22:57:12.876Z,13.10
2019-06-26T22:59:40.415Z,19.63
2019-06-26T23:02:08.155Z,12.57
2019-06-26T23:04:35.725Z,13.60
2019-06-26T23:07:03.274Z,17.30
2019-06-26T23:09:30.873Z,15.87
2019-06-26T23:11:58.436Z,16.30
2019-06-26T23:14:25.963Z,16.40
2019-06-26T23:16:53.550Z,20.13
2019-06-26T23:19:21.165Z,16.93
2019-06-26T23:21:48.715Z,15.67
2019-06-26T23:24:16.262Z,15.40
2019-06-26T23:26:44.008Z,14.87
2019-06-26T23:29:11.539Z,14.47
2019-06-26T23:31:39.094Z,15.20
2019-06-26T23:34:06.817Z,15.17
2019-06-26T23:36:34.375Z,21.73
2019-06-26T23:39:01.931Z,22.10
2019-06-26T23:41:29.654Z,19.27
2019-06-26T23:43:57.223Z,19.00
2019-06-26T23:46:24.763Z,14.27
2019-06-26T23:48:52.349Z,17.53
2019-06-26T23:51:19.901Z,19.17
2019-06-26T23:53:47.444Z,22.40
2019-06-26T23:56:15.186Z,14.93
2019-06-26T23:58:42.761Z,14.03
